sensor_id;sensor_type;location;lat;lon;timestamp;P1;durP1;ratioP1;P2;durP2;ratioP2
3901;SDS011;1966;49.908;9.156;2023-05-13T00:03:07;6.43;;;5.83;;
3901;SDS011;1966;49.908;9.156;2023-05-13T00:08:06;9.40;;;5.93;;
3901;SDS011;1966;49.908;9.156;2023-05-13T00:13:06;6.50;;;5.77;;
3901;SDS011;1966;49.908;9.156;2023-05-13T00:18:05;6.93;;;6.23;;
3901;SDS011;1966;49.908;9.156;2023-05-13T00:23:06;6.83;;;5.87;;
3901;SDS011;1966;49.908;9.156;2023-05-13T00:28:05;6.13;;;5.50;;
3901;SDS011;1966;49.908;9.156;2023-05-13T00:33:05;5.47;;;4.97;;
3901;SDS011;1966;49.908;9.156;2023-05-13T00:38:06;8.23;;;5.83;;
3901;SDS011;1966;49.908;9.156;2023-05-13T00:43:05;7.43;;;6.50;;
3901;SDS011;1966;49.908;9.156;2023-05-13T00:48:05;6.70;;;6.00;;
3901;SDS011;1966;49.908;9.156;2023-05-13T00:53:06;10.83;;;6.67;;
3901;SDS011;1966;49.908;9.156;2023-05-13T00:58:05;10.23;;;6.20;;
3901;SDS011;1966;49.908;9.156;2023-05-13T01:03:05;9.93;;;7.07;;
3901;SDS011;1966;49.908;9.156;2023-05-13T01:08:11;7.30;;;6.03;;
3901;SDS011;1966;49.908;9.156;2023-05-13T01:13:16;6.43;;;5.80;;
3901;SDS011;1966;49.908;9.156;2023-05-13T01:18:18;7.10;;;6.23;;
3901;SDS011;1966;49.908;9.156;2023-05-13T01:23:19;9.60;;;5.70;;
3901;SDS011;1966;49.908;9.156;2023-05-13T01:28:18;8.40;;;6.20;;
3901;SDS011;1966;49.908;9.156;2023-05-13T01:33:17;10.90;;;6.07;;
3901;SDS011;1966;49.908;9.156;2023-05-13T01:38:18;8.80;;;6.80;;
3901;SDS011;1966;49.908;9.156;2023-05-13T01:43:18;12.53;;;8.00;;
3901;SDS011;1966;49.908;9.156;2023-05-13T01:48:17;12.40;;;8.07;;
3901;SDS011;1966;49.908;9.156;2023-05-13T01:53:17;9.93;;;8.83;;
3901;SDS011;1966;49.908;9.156;2023-05-13T01:58:17;12.10;;;8.67;;
3901;SDS011;1966;49.908;9.156;2023-05-13T02:03:17;10.50;;;7.80;;
3901;SDS011;1966;49.908;9.156;2023-05-13T02:08:16;9.60;;;8.10;;
3901;SDS011;1966;49.908;9.156;2023-05-13T02:13:17;8.63;;;7.40;;
3901;SDS011;1966;49.908;9.156;2023-05-13T02:18:16;11.03;;;7.70;;
3901;SDS011;1966;49.908;9.156;2023-05-13T02:23:15;7.77;;;6.83;;
3901;SDS011;1966;49.908;9.156;2023-05-13T02:28:15;8.93;;;6.47;;
3901;SDS011;1966;49.908;9.156;2023-05-13T02:33:15;7.53;;;6.73;;
3901;SDS011;1966;49.908;9.156;2023-05-13T02:38:15;7.20;;;6.37;;
3901;SDS011;1966;49.908;9.156;2023-05-13T02:43:14;7.80;;;6.93;;
3901;SDS011;1966;49.908;9.156;2023-05-13T02:48:13;10.03;;;7.50;;
3901;SDS011;1966;49.908;9.156;2023-05-13T02:53:14;7.17;;;6.33;;
3901;SDS011;1966;49.908;9.156;2023-05-13T02:58:13;9.50;;;7.80;;
3901;SDS011;1966;49.908;9.156;2023-05-13T03:03:13;9.77;;;7.83;;
3901;SDS011;1966;49.908;9.156;2023-05-13T03:08:13;9.93;;;8.20;;
3901;SDS011;1966;49.908;9.156;2023-05-13T03:13:13;9.13;;;7.10;;
3901;SDS011;1966;49.908;9.156;2023-05-13T03:18:12;9.53;;;7.27;;
3901;SDS011;1966;49.908;9.156;2023-05-13T03:23:11;7.40;;;6.60;;
3901;SDS011;1966;49.908;9.156;2023-05-13T03:28:12;7.40;;;6.47;;
3901;SDS011;1966;49.908;9.156;2023-05-13T03:33:11;7.23;;;6.33;;
3901;SDS011;1966;49.908;9.156;2023-05-13T03:38:10;8.33;;;6.80;;
3901;SDS011;1966;49.908;9.156;2023-05-13T03:43:09;10.33;;;7.63;;
3901;SDS011;1966;49.908;9.156;2023-05-13T03:48:10;10.80;;;6.80;;
3901;SDS011;1966;49.908;9.156;2023-05-13T03:53:09;9.77;;;7.50;;
3901;SDS011;1966;49.908;9.156;2023-05-13T03:58:12;8.07;;;6.60;;
3901;SDS011;1966;49.908;9.156;2023-05-13T04:03:13;8.23;;;7.03;;
3901;SDS011;1966;49.908;9.156;2023-05-13T04:08:14;7.93;;;7.13;;
3901;SDS011;1966;49.908;9.156;2023-05-13T04:13:13;15.07;;;6.80;;
3901;SDS011;1966;49.908;9.156;2023-05-13T04:18:14;8.97;;;7.80;;
3901;SDS011;1966;49.908;9.156;2023-05-13T04:23:13;7.07;;;6.37;;
3901;SDS011;1966;49.908;9.156;2023-05-13T04:28:12;8.40;;;7.33;;
3901;SDS011;1966;49.908;9.156;2023-05-13T04:33:15;8.03;;;7.20;;
3901;SDS011;1966;49.908;9.156;2023-05-13T04:38:14;8.27;;;7.43;;
3901;SDS011;1966;49.908;9.156;2023-05-13T04:43:13;12.03;;;8.63;;
3901;SDS011;1966;49.908;9.156;2023-05-13T04:48:14;11.70;;;8.40;;
3901;SDS011;1966;49.908;9.156;2023-05-13T04:53:14;16.40;;;8.53;;
3901;SDS011;1966;49.908;9.156;2023-05-13T04:58:13;12.10;;;7.90;;
3901;SDS011;1966;49.908;9.156;2023-05-13T05:03:12;9.20;;;8.13;;
3901;SDS011;1966;49.908;9.156;2023-05-13T05:08:13;10.97;;;8.80;;
3901;SDS011;1966;49.908;9.156;2023-05-13T05:13:12;8.87;;;7.67;;
3901;SDS011;1966;49.908;9.156;2023-05-13T05:18:11;16.90;;;10.20;;
3901;SDS011;1966;49.908;9.156;2023-05-13T05:23:11;13.93;;;10.77;;
3901;SDS011;1966;49.908;9.156;2023-05-13T05:28:11;13.63;;;10.30;;
3901;SDS011;1966;49.908;9.156;2023-05-13T05:33:11;12.93;;;10.87;;
3901;SDS011;1966;49.908;9.156;2023-05-13T05:38:10;12.70;;;10.07;;
3901;SDS011;1966;49.908;9.156;2023-05-13T05:43:11;12.37;;;9.13;;
3901;SDS011;1966;49.908;9.156;2023-05-13T05:48:10;11.10;;;9.37;;
3901;SDS011;1966;49.908;9.156;2023-05-13T05:53:09;14.43;;;10.57;;
3901;SDS011;1966;49.908;9.156;2023-05-13T05:58:09;12.33;;;9.73;;
3901;SDS011;1966;49.908;9.156;2023-05-13T06:03:14;11.03;;;8.80;;
3901;SDS011;1966;49.908;9.156;2023-05-13T06:08:13;13.07;;;9.77;;
3901;SDS011;1966;49.908;9.156;2023-05-13T06:13:13;10.47;;;8.33;;
3901;SDS011;1966;49.908;9.156;2023-05-13T06:18:12;13.10;;;9.13;;
3901;SDS011;1966;49.908;9.156;2023-05-13T06:23:13;10.70;;;9.20;;
3901;SDS011;1966;49.908;9.156;2023-05-13T06:28:12;12.27;;;9.90;;
3901;SDS011;1966;49.908;9.156;2023-05-13T06:33:12;11.70;;;8.80;;
3901;SDS011;1966;49.908;9.156;2023-05-13T06:38:12;10.20;;;8.70;;
3901;SDS011;1966;49.908;9.156;2023-05-13T06:43:14;9.50;;;8.50;;
3901;SDS011;1966;49.908;9.156;2023-05-13T06:48:15;9.53;;;7.80;;
3901;SDS011;1966;49.908;9.156;2023-05-13T06:53:15;10.20;;;7.87;;
3901;SDS011;1966;49.908;9.156;2023-05-13T06:58:14;8.97;;;7.87;;
3901;SDS011;1966;49.908;9.156;2023-05-13T07:03:14;9.20;;;8.20;;
3901;SDS011;1966;49.908;9.156;2023-05-13T07:08:15;11.73;;;7.80;;
3901;SDS011;1966;49.908;9.156;2023-05-13T07:13:16;8.53;;;7.40;;
3901;SDS011;1966;49.908;9.156;2023-05-13T07:18:16;7.90;;;7.03;;
3901;SDS011;1966;49.908;9.156;2023-05-13T07:23:16;8.50;;;6.20;;
3901;SDS011;1966;49.908;9.156;2023-05-13T07:28:15;5.43;;;4.93;;
3901;SDS011;1966;49.908;9.156;2023-05-13T07:33:15;6.73;;;5.43;;
3901;SDS011;1966;49.908;9.156;2023-05-13T07:38:16;6.20;;;5.60;;
3901;SDS011;1966;49.908;9.156;2023-05-13T07:43:16;7.00;;;5.20;;
3901;SDS011;1966;49.908;9.156;2023-05-13T07:48:20;8.60;;;5.00;;
3901;SDS011;1966;49.908;9.156;2023-05-13T07:53:22;6.93;;;4.53;;
3901;SDS011;1966;49.908;9.156;2023-05-13T07:58:22;5.47;;;4.60;;
3901;SDS011;1966;49.908;9.156;2023-05-13T08:03:21;8.00;;;4.90;;
3901;SDS011;1966;49.908;9.156;2023-05-13T08:08:25;5.07;;;4.57;;
3901;SDS011;1966;49.908;9.156;2023-05-13T08:13:24;4.70;;;4.30;;
3901;SDS011;1966;49.908;9.156;2023-05-13T08:18:23;4.70;;;4.20;;
3901;SDS011;1966;49.908;9.156;2023-05-13T08:23:23;4.87;;;4.00;;
3901;SDS011;1966;49.908;9.156;2023-05-13T08:28:24;4.20;;;3.90;;
3901;SDS011;1966;49.908;9.156;2023-05-13T08:33:24;4.37;;;3.97;;
3901;SDS011;1966;49.908;9.156;2023-05-13T08:38:23;5.63;;;3.83;;
3901;SDS011;1966;49.908;9.156;2023-05-13T08:43:24;4.43;;;4.07;;
3901;SDS011;1966;49.908;9.156;2023-05-13T08:48:25;3.53;;;3.23;;
3901;SDS011;1966;49.908;9.156;2023-05-13T08:53:25;3.80;;;3.50;;
3901;SDS011;1966;49.908;9.156;2023-05-13T08:58:26;5.10;;;3.30;;
3901;SDS011;1966;49.908;9.156;2023-05-13T09:03:26;4.33;;;3.50;;
3901;SDS011;1966;49.908;9.156;2023-05-13T09:08:25;4.00;;;3.27;;
3901;SDS011;1966;49.908;9.156;2023-05-13T09:13:26;4.77;;;3.47;;
3901;SDS011;1966;49.908;9.156;2023-05-13T09:18:28;6.63;;;5.50;;
3901;SDS011;1966;49.908;9.156;2023-05-13T09:23:27;4.23;;;3.80;;
3901;SDS011;1966;49.908;9.156;2023-05-13T09:28:28;7.47;;;5.93;;
3901;SDS011;1966;49.908;9.156;2023-05-13T09:33:28;4.33;;;3.93;;
3901;SDS011;1966;49.908;9.156;2023-05-13T09:38:28;12.00;;;4.20;;
3901;SDS011;1966;49.908;9.156;2023-05-13T09:43:31;4.70;;;3.60;;
3901;SDS011;1966;49.908;9.156;2023-05-13T09:48:31;5.00;;;3.83;;
3901;SDS011;1966;49.908;9.156;2023-05-13T09:53:30;3.93;;;3.60;;
3901;SDS011;1966;49.908;9.156;2023-05-13T09:58:31;4.67;;;3.90;;
3901;SDS011;1966;49.908;9.156;2023-05-13T10:03:31;4.33;;;3.50;;
3901;SDS011;1966;49.908;9.156;2023-05-13T10:08:30;4.23;;;3.70;;
3901;SDS011;1966;49.908;9.156;2023-05-13T10:13:31;5.60;;;3.73;;
3901;SDS011;1966;49.908;9.156;2023-05-13T10:18:31;3.90;;;3.60;;
3901;SDS011;1966;49.908;9.156;2023-05-13T10:23:31;5.33;;;4.10;;
3901;SDS011;1966;49.908;9.156;2023-05-13T10:28:32;3.67;;;3.37;;
3901;SDS011;1966;49.908;9.156;2023-05-13T10:33:31;4.23;;;3.20;;
3901;SDS011;1966;49.908;9.156;2023-05-13T10:38:34;3.80;;;3.50;;
3901;SDS011;1966;49.908;9.156;2023-05-13T10:43:40;5.60;;;3.50;;
3901;SDS011;1966;49.908;9.156;2023-05-13T10:48:40;3.73;;;3.43;;
3901;SDS011;1966;49.908;9.156;2023-05-13T10:53:42;3.60;;;3.07;;
3901;SDS011;1966;49.908;9.156;2023-05-13T10:58:43;5.80;;;3.83;;
3901;SDS011;1966;49.908;9.156;2023-05-13T11:03:55;3.83;;;3.53;;
3901;SDS011;1966;49.908;9.156;2023-05-13T11:08:54;3.30;;;3.10;;
3901;SDS011;1966;49.908;9.156;2023-05-13T11:14:01;7.27;;;3.70;;
3901;SDS011;1966;49.908;9.156;2023-05-13T11:19:00;5.10;;;4.10;;
3901;SDS011;1966;49.908;9.156;2023-05-13T11:24:01;3.70;;;3.27;;
3901;SDS011;1966;49.908;9.156;2023-05-13T11:29:04;3.70;;;3.40;;
3901;SDS011;1966;49.908;9.156;2023-05-13T11:34:07;4.57;;;4.00;;
3901;SDS011;1966;49.908;9.156;2023-05-13T11:39:07;4.23;;;3.67;;
3901;SDS011;1966;49.908;9.156;2023-05-13T11:44:10;4.13;;;3.70;;
3901;SDS011;1966;49.908;9.156;2023-05-13T11:49:10;5.40;;;3.60;;
3901;SDS011;1966;49.908;9.156;2023-05-13T11:54:09;5.80;;;3.40;;
3901;SDS011;1966;49.908;9.156;2023-05-13T11:59:13;7.13;;;4.07;;
3901;SDS011;1966;49.908;9.156;2023-05-13T12:04:13;4.50;;;3.60;;
3901;SDS011;1966;49.908;9.156;2023-05-13T12:09:12;3.77;;;3.47;;
3901;SDS011;1966;49.908;9.156;2023-05-13T12:14:11;7.57;;;3.70;;
3901;SDS011;1966;49.908;9.156;2023-05-13T12:19:12;3.80;;;3.53;;
3901;SDS011;1966;49.908;9.156;2023-05-13T12:24:17;4.00;;;3.70;;
3901;SDS011;1966;49.908;9.156;2023-05-13T12:29:17;7.17;;;3.37;;
3901;SDS011;1966;49.908;9.156;2023-05-13T12:34:29;8.40;;;3.50;;
3901;SDS011;1966;49.908;9.156;2023-05-13T12:39:29;5.07;;;3.97;;
3901;SDS011;1966;49.908;9.156;2023-05-13T12:44:28;6.50;;;3.73;;
3901;SDS011;1966;49.908;9.156;2023-05-13T12:49:30;3.80;;;3.23;;
3901;SDS011;1966;49.908;9.156;2023-05-13T12:54:29;5.13;;;3.53;;
3901;SDS011;1966;49.908;9.156;2023-05-13T12:59:28;3.70;;;3.23;;
3901;SDS011;1966;49.908;9.156;2023-05-13T13:04:29;3.70;;;2.80;;
3901;SDS011;1966;49.908;9.156;2023-05-13T13:09:29;3.20;;;2.90;;
3901;SDS011;1966;49.908;9.156;2023-05-13T13:14:28;3.47;;;2.90;;
3901;SDS011;1966;49.908;9.156;2023-05-13T13:19:29;3.00;;;2.80;;
3901;SDS011;1966;49.908;9.156;2023-05-13T13:24:29;3.00;;;2.80;;
3901;SDS011;1966;49.908;9.156;2023-05-13T13:29:28;3.47;;;3.17;;
3901;SDS011;1966;49.908;9.156;2023-05-13T13:34:27;3.93;;;3.47;;
3901;SDS011;1966;49.908;9.156;2023-05-13T13:39:28;3.70;;;3.40;;
3901;SDS011;1966;49.908;9.156;2023-05-13T13:44:27;4.50;;;4.03;;
3901;SDS011;1966;49.908;9.156;2023-05-13T13:49:26;4.70;;;4.10;;
3901;SDS011;1966;49.908;9.156;2023-05-13T13:54:26;4.10;;;3.53;;
3901;SDS011;1966;49.908;9.156;2023-05-13T13:59:26;3.80;;;3.50;;
3901;SDS011;1966;49.908;9.156;2023-05-13T14:04:25;4.23;;;3.70;;
3901;SDS011;1966;49.908;9.156;2023-05-13T14:09:27;5.17;;;3.70;;
3901;SDS011;1966;49.908;9.156;2023-05-13T14:14:27;4.40;;;4.00;;
3901;SDS011;1966;49.908;9.156;2023-05-13T14:19:27;3.83;;;3.50;;
3901;SDS011;1966;49.908;9.156;2023-05-13T14:24:26;4.27;;;3.50;;
3901;SDS011;1966;49.908;9.156;2023-05-13T14:29:25;3.60;;;3.30;;
3901;SDS011;1966;49.908;9.156;2023-05-13T14:34:26;4.10;;;3.70;;
3901;SDS011;1966;49.908;9.156;2023-05-13T14:39:25;3.47;;;3.20;;
3901;SDS011;1966;49.908;9.156;2023-05-13T14:44:24;4.63;;;3.90;;
3901;SDS011;1966;49.908;9.156;2023-05-13T14:49:24;3.93;;;3.63;;
3901;SDS011;1966;49.908;9.156;2023-05-13T14:54:24;4.63;;;4.23;;
3901;SDS011;1966;49.908;9.156;2023-05-13T14:59:23;3.93;;;3.53;;
3901;SDS011;1966;49.908;9.156;2023-05-13T15:04:23;6.63;;;4.40;;
3901;SDS011;1966;49.908;9.156;2023-05-13T15:09:22;3.80;;;3.50;;
3901;SDS011;1966;49.908;9.156;2023-05-13T15:14:23;4.37;;;3.97;;
3901;SDS011;1966;49.908;9.156;2023-05-13T15:19:23;4.23;;;3.83;;
3901;SDS011;1966;49.908;9.156;2023-05-13T15:24:22;5.10;;;4.60;;
3901;SDS011;1966;49.908;9.156;2023-05-13T15:29:22;5.20;;;3.80;;
3901;SDS011;1966;49.908;9.156;2023-05-13T15:34:22;4.47;;;4.07;;
3901;SDS011;1966;49.908;9.156;2023-05-13T15:39:21;11.90;;;6.53;;
3901;SDS011;1966;49.908;9.156;2023-05-13T15:44:20;12.70;;;6.47;;
3901;SDS011;1966;49.908;9.156;2023-05-13T15:49:21;13.97;;;6.23;;
3901;SDS011;1966;49.908;9.156;2023-05-13T15:54:20;6.10;;;4.50;;
3901;SDS011;1966;49.908;9.156;2023-05-13T15:59:20;4.13;;;3.83;;
3901;SDS011;1966;49.908;9.156;2023-05-13T16:04:19;3.90;;;3.60;;
3901;SDS011;1966;49.908;9.156;2023-05-13T16:09:19;3.80;;;3.50;;
3901;SDS011;1966;49.908;9.156;2023-05-13T16:14:19;4.57;;;3.47;;
3901;SDS011;1966;49.908;9.156;2023-05-13T16:19:18;3.40;;;3.20;;
3901;SDS011;1966;49.908;9.156;2023-05-13T16:24:17;3.60;;;3.30;;
3901;SDS011;1966;49.908;9.156;2023-05-13T16:29:18;5.10;;;3.73;;
3901;SDS011;1966;49.908;9.156;2023-05-13T16:34:17;4.17;;;3.30;;
3901;SDS011;1966;49.908;9.156;2023-05-13T16:39:16;4.00;;;3.30;;
3901;SDS011;1966;49.908;9.156;2023-05-13T16:44:15;4.00;;;3.60;;
3901;SDS011;1966;49.908;9.156;2023-05-13T16:49:16;3.73;;;3.43;;
3901;SDS011;1966;49.908;9.156;2023-05-13T16:54:15;3.60;;;3.10;;
3901;SDS011;1966;49.908;9.156;2023-05-13T16:59:17;3.90;;;3.60;;
3901;SDS011;1966;49.908;9.156;2023-05-13T17:04:18;4.57;;;4.17;;
3901;SDS011;1966;49.908;9.156;2023-05-13T17:09:18;4.20;;;3.90;;
3901;SDS011;1966;49.908;9.156;2023-05-13T17:14:17;4.27;;;3.90;;
3901;SDS011;1966;49.908;9.156;2023-05-13T17:19:16;3.53;;;3.30;;
3901;SDS011;1966;49.908;9.156;2023-05-13T17:24:17;3.10;;;2.90;;
3901;SDS011;1966;49.908;9.156;2023-05-13T17:29:19;2.97;;;2.77;;
3901;SDS011;1966;49.908;9.156;2023-05-13T17:34:18;2.93;;;2.73;;
3901;SDS011;1966;49.908;9.156;2023-05-13T17:39:19;2.70;;;2.50;;
3901;SDS011;1966;49.908;9.156;2023-05-13T17:44:18;3.50;;;3.27;;
3901;SDS011;1966;49.908;9.156;2023-05-13T17:49:18;3.30;;;3.00;;
3901;SDS011;1966;49.908;9.156;2023-05-13T17:54:17;3.13;;;2.93;;
3901;SDS011;1966;49.908;9.156;2023-05-13T17:59:17;4.33;;;2.93;;
3901;SDS011;1966;49.908;9.156;2023-05-13T18:04:17;5.03;;;3.10;;
3901;SDS011;1966;49.908;9.156;2023-05-13T18:09:16;3.20;;;2.90;;
3901;SDS011;1966;49.908;9.156;2023-05-13T18:14:15;3.37;;;3.07;;
3901;SDS011;1966;49.908;9.156;2023-05-13T18:19:16;3.00;;;2.80;;
3901;SDS011;1966;49.908;9.156;2023-05-13T18:24:15;3.53;;;3.33;;
3901;SDS011;1966;49.908;9.156;2023-05-13T18:29:14;3.30;;;3.10;;
3901;SDS011;1966;49.908;9.156;2023-05-13T18:34:13;3.50;;;3.20;;
3901;SDS011;1966;49.908;9.156;2023-05-13T18:39:14;3.73;;;3.43;;
3901;SDS011;1966;49.908;9.156;2023-05-13T18:44:13;3.73;;;3.43;;
3901;SDS011;1966;49.908;9.156;2023-05-13T18:49:12;3.53;;;3.23;;
3901;SDS011;1966;49.908;9.156;2023-05-13T18:54:13;4.43;;;4.03;;
3901;SDS011;1966;49.908;9.156;2023-05-13T18:59:12;4.70;;;4.13;;
3901;SDS011;1966;49.908;9.156;2023-05-13T19:04:11;6.67;;;4.87;;
3901;SDS011;1966;49.908;9.156;2023-05-13T19:09:13;6.97;;;6.27;;
3901;SDS011;1966;49.908;9.156;2023-05-13T19:14:13;8.23;;;6.53;;
3901;SDS011;1966;49.908;9.156;2023-05-13T19:19:12;6.90;;;6.30;;
3901;SDS011;1966;49.908;9.156;2023-05-13T19:24:11;6.03;;;5.43;;
3901;SDS011;1966;49.908;9.156;2023-05-13T19:29:12;5.97;;;5.37;;
3901;SDS011;1966;49.908;9.156;2023-05-13T19:34:11;10.40;;;7.43;;
3901;SDS011;1966;49.908;9.156;2023-05-13T19:39:11;10.17;;;7.33;;
3901;SDS011;1966;49.908;9.156;2023-05-13T19:44:12;7.27;;;6.40;;
3901;SDS011;1966;49.908;9.156;2023-05-13T19:49:11;8.90;;;5.77;;
3901;SDS011;1966;49.908;9.156;2023-05-13T19:54:10;15.40;;;11.13;;
3901;SDS011;1966;49.908;9.156;2023-05-13T19:59:12;15.93;;;11.60;;
3901;SDS011;1966;49.908;9.156;2023-05-13T20:04:11;11.53;;;9.83;;
3901;SDS011;1966;49.908;9.156;2023-05-13T20:09:10;15.83;;;7.20;;
3901;SDS011;1966;49.908;9.156;2023-05-13T20:14:09;6.60;;;6.00;;
3901;SDS011;1966;49.908;9.156;2023-05-13T20:19:11;6.43;;;5.80;;
3901;SDS011;1966;49.908;9.156;2023-05-13T20:24:10;7.83;;;6.73;;
3901;SDS011;1966;49.908;9.156;2023-05-13T20:29:10;8.23;;;6.60;;
3901;SDS011;1966;49.908;9.156;2023-05-13T20:34:09;6.80;;;6.10;;
3901;SDS011;1966;49.908;9.156;2023-05-13T20:39:10;7.90;;;7.03;;
3901;SDS011;1966;49.908;9.156;2023-05-13T20:44:09;12.50;;;8.90;;
3901;SDS011;1966;49.908;9.156;2023-05-13T20:49:09;7.67;;;6.97;;
3901;SDS011;1966;49.908;9.156;2023-05-13T20:54:10;6.93;;;6.20;;
3901;SDS011;1966;49.908;9.156;2023-05-13T20:59:09;7.80;;;7.00;;
3901;SDS011;1966;49.908;9.156;2023-05-13T21:04:09;15.70;;;10.70;;
3901;SDS011;1966;49.908;9.156;2023-05-13T21:09:09;9.00;;;7.27;;
3901;SDS011;1966;49.908;9.156;2023-05-13T21:14:08;9.00;;;6.70;;
3901;SDS011;1966;49.908;9.156;2023-05-13T21:19:11;9.50;;;8.53;;
3901;SDS011;1966;49.908;9.156;2023-05-13T21:24:17;10.40;;;8.30;;
3901;SDS011;1966;49.908;9.156;2023-05-13T21:29:16;7.90;;;7.17;;
3901;SDS011;1966;49.908;9.156;2023-05-13T21:34:16;6.70;;;6.10;;
3901;SDS011;1966;49.908;9.156;2023-05-13T21:39:16;9.27;;;8.37;;
3901;SDS011;1966;49.908;9.156;2023-05-13T21:44:15;8.87;;;7.97;;
3901;SDS011;1966;49.908;9.156;2023-05-13T21:49:15;8.17;;;7.43;;
3901;SDS011;1966;49.908;9.156;2023-05-13T21:54:14;7.40;;;6.70;;
3901;SDS011;1966;49.908;9.156;2023-05-13T21:59:14;7.33;;;6.70;;
3901;SDS011;1966;49.908;9.156;2023-05-13T22:04:14;6.53;;;6.00;;
3901;SDS011;1966;49.908;9.156;2023-05-13T22:09:13;6.50;;;5.87;;
3901;SDS011;1966;49.908;9.156;2023-05-13T22:14:12;6.03;;;5.43;;
3901;SDS011;1966;49.908;9.156;2023-05-13T22:19:13;6.17;;;5.67;;
3901;SDS011;1966;49.908;9.156;2023-05-13T22:24:13;6.50;;;5.90;;
3901;SDS011;1966;49.908;9.156;2023-05-13T22:29:12;9.33;;;6.63;;
3901;SDS011;1966;49.908;9.156;2023-05-13T22:34:13;6.10;;;5.50;;
3901;SDS011;1966;49.908;9.156;2023-05-13T22:39:12;5.80;;;5.30;;
3901;SDS011;1966;49.908;9.156;2023-05-13T22:44:12;6.30;;;5.70;;
3901;SDS011;1966;49.908;9.156;2023-05-13T22:49:13;5.90;;;5.40;;
3901;SDS011;1966;49.908;9.156;2023-05-13T22:54:12;16.00;;;10.30;;
3901;SDS011;1966;49.908;9.156;2023-05-13T22:59:11;9.70;;;7.80;;
3901;SDS011;1966;49.908;9.156;2023-05-13T23:04:11;7.73;;;6.93;;
3901;SDS011;1966;49.908;9.156;2023-05-13T23:09:11;6.80;;;6.13;;
3901;SDS011;1966;49.908;9.156;2023-05-13T23:14:10;6.17;;;5.57;;
3901;SDS011;1966;49.908;9.156;2023-05-13T23:19:10;6.40;;;5.33;;
3901;SDS011;1966;49.908;9.156;2023-05-13T23:24:09;6.90;;;5.70;;
3901;SDS011;1966;49.908;9.156;2023-05-13T23:29:09;8.53;;;6.57;;
3901;SDS011;1966;49.908;9.156;2023-05-13T23:34:09;6.00;;;5.40;;
3901;SDS011;1966;49.908;9.156;2023-05-13T23:39:08;5.87;;;5.37;;
3901;SDS011;1966;49.908;9.156;2023-05-13T23:44:07;5.80;;;5.30;;
3901;SDS011;1966;49.908;9.156;2023-05-13T23:49:08;6.30;;;5.70;;
3901;SDS011;1966;49.908;9.156;2023-05-13T23:54:07;5.50;;;5.00;;
3901;SDS011;1966;49.908;9.156;2023-05-13T23:59:06;7.00;;;5.97;;
